sensor_id;sensor_type;location;lat;lon;timestamp;temperature;humidity
47618;DHT22;33336;36.728;-4.414;2023-08-12T00:01:53;30.30;99.90
47618;DHT22;33336;36.728;-4.414;2023-08-12T00:06:56;30.40;99.90
47618;DHT22;33336;36.728;-4.414;2023-08-12T00:12:01;30.00;99.90
47618;DHT22;33336;36.728;-4.414;2023-08-12T00:17:04;29.90;99.90
47618;DHT22;33336;36.728;-4.414;2023-08-12T00:22:06;29.70;99.90
47618;DHT22;33336;36.728;-4.414;2023-08-12T00:27:11;29.50;99.90
47618;DHT22;33336;36.728;-4.414;2023-08-12T00:32:14;29.80;99.90
47618;DHT22;33336;36.728;-4.414;2023-08-12T00:37:17;30.00;99.90
47618;DHT22;33336;36.728;-4.414;2023-08-12T00:42:22;30.10;99.90
47618;DHT22;33336;36.728;-4.414;2023-08-12T00:47:28;29.40;99.90
47618;DHT22;33336;36.728;-4.414;2023-08-12T00:52:31;29.60;99.90
47618;DHT22;33336;36.728;-4.414;2023-08-12T00:57:36;29.20;99.90
47618;DHT22;33336;36.728;-4.414;2023-08-12T01:02:39;29.30;99.90
47618;DHT22;33336;36.728;-4.414;2023-08-12T01:07:42;29.50;99.90
47618;DHT22;33336;36.728;-4.414;2023-08-12T01:12:52;29.80;99.90
47618;DHT22;33336;36.728;-4.414;2023-08-12T01:17:57;30.00;99.90
47618;DHT22;33336;36.728;-4.414;2023-08-12T01:23:10;30.00;99.90
47618;DHT22;33336;36.728;-4.414;2023-08-12T01:28:13;30.00;99.90
47618;DHT22;33336;36.728;-4.414;2023-08-12T01:33:21;29.60;99.90
47618;DHT22;33336;36.728;-4.414;2023-08-12T01:38:27;29.60;99.90
47618;DHT22;33336;36.728;-4.414;2023-08-12T01:43:32;29.90;99.90
47618;DHT22;33336;36.728;-4.414;2023-08-12T01:48:35;29.90;99.90
47618;DHT22;33336;36.728;-4.414;2023-08-12T01:53:40;29.40;99.90
47618;DHT22;33336;36.728;-4.414;2023-08-12T01:58:43;29.40;99.90
47618;DHT22;33336;36.728;-4.414;2023-08-12T02:03:45;29.40;99.90
47618;DHT22;33336;36.728;-4.414;2023-08-12T02:08:50;29.40;99.90
47618;DHT22;33336;36.728;-4.414;2023-08-12T02:13:52;29.40;99.90
47618;DHT22;33336;36.728;-4.414;2023-08-12T02:18:55;29.40;99.90
47618;DHT22;33336;36.728;-4.414;2023-08-12T02:24:00;29.40;99.90
47618;DHT22;33336;36.728;-4.414;2023-08-12T02:29:03;28.80;99.90
47618;DHT22;33336;36.728;-4.414;2023-08-12T02:34:07;28.70;99.90
47618;DHT22;33336;36.728;-4.414;2023-08-12T02:39:12;28.70;99.90
47618;DHT22;33336;36.728;-4.414;2023-08-12T02:44:16;28.90;99.90
47618;DHT22;33336;36.728;-4.414;2023-08-12T02:49:19;28.70;99.90
47618;DHT22;33336;36.728;-4.414;2023-08-12T02:54:24;28.70;99.90
47618;DHT22;33336;36.728;-4.414;2023-08-12T02:59:27;28.70;99.90
47618;DHT22;33336;36.728;-4.414;2023-08-12T03:04:31;28.40;99.90
47618;DHT22;33336;36.728;-4.414;2023-08-12T03:09:36;28.50;99.90
47618;DHT22;33336;36.728;-4.414;2023-08-12T03:14:39;28.60;99.90
47618;DHT22;33336;36.728;-4.414;2023-08-12T03:19:42;28.80;99.90
47618;DHT22;33336;36.728;-4.414;2023-08-12T03:24:48;29.10;99.90
47618;DHT22;33336;36.728;-4.414;2023-08-12T03:29:51;29.20;99.90
47618;DHT22;33336;36.728;-4.414;2023-08-12T03:34:54;29.10;99.90
47618;DHT22;33336;36.728;-4.414;2023-08-12T03:39:59;29.10;99.90
47618;DHT22;33336;36.728;-4.414;2023-08-12T03:45:03;28.70;99.90
47618;DHT22;33336;36.728;-4.414;2023-08-12T03:50:06;28.60;99.90
47618;DHT22;33336;36.728;-4.414;2023-08-12T03:55:11;28.80;99.90
47618;DHT22;33336;36.728;-4.414;2023-08-12T04:00:14;29.00;99.90
47618;DHT22;33336;36.728;-4.414;2023-08-12T04:05:18;29.10;99.90
47618;DHT22;33336;36.728;-4.414;2023-08-12T04:10:22;29.00;99.90
47618;DHT22;33336;36.728;-4.414;2023-08-12T04:15:27;29.00;99.90
47618;DHT22;33336;36.728;-4.414;2023-08-12T04:20:30;29.00;99.90
47618;DHT22;33336;36.728;-4.414;2023-08-12T04:25:35;28.70;99.90
47618;DHT22;33336;36.728;-4.414;2023-08-12T04:30:41;29.10;99.90
47618;DHT22;33336;36.728;-4.414;2023-08-12T04:35:44;28.70;99.90
47618;DHT22;33336;36.728;-4.414;2023-08-12T04:40:49;28.80;99.90
47618;DHT22;33336;36.728;-4.414;2023-08-12T04:45:52;28.70;99.90
47618;DHT22;33336;36.728;-4.414;2023-08-12T04:50:56;28.60;99.90
47618;DHT22;33336;36.728;-4.414;2023-08-12T04:56:03;28.80;99.90
47618;DHT22;33336;36.728;-4.414;2023-08-12T05:01:07;29.00;99.90
47618;DHT22;33336;36.728;-4.414;2023-08-12T05:06:10;29.10;99.90
47618;DHT22;33336;36.728;-4.414;2023-08-12T05:11:15;28.90;99.90
47618;DHT22;33336;36.728;-4.414;2023-08-12T05:16:18;28.80;99.90
47618;DHT22;33336;36.728;-4.414;2023-08-12T05:21:21;28.60;99.90
47618;DHT22;33336;36.728;-4.414;2023-08-12T05:26:27;28.60;99.90
47618;DHT22;33336;36.728;-4.414;2023-08-12T05:31:30;28.40;99.90
47618;DHT22;33336;36.728;-4.414;2023-08-12T05:36:33;28.60;99.90
47618;DHT22;33336;36.728;-4.414;2023-08-12T05:41:38;28.80;99.90
47618;DHT22;33336;36.728;-4.414;2023-08-12T05:46:41;28.90;99.90
47618;DHT22;33336;36.728;-4.414;2023-08-12T05:51:44;29.00;99.90
47618;DHT22;33336;36.728;-4.414;2023-08-12T05:56:48;29.10;99.90
47618;DHT22;33336;36.728;-4.414;2023-08-12T06:01:51;29.00;99.90
47618;DHT22;33336;36.728;-4.414;2023-08-12T06:06:54;28.60;99.90
47618;DHT22;33336;36.728;-4.414;2023-08-12T06:11:59;29.00;99.90
47618;DHT22;33336;36.728;-4.414;2023-08-12T06:17:02;28.90;99.90
47618;DHT22;33336;36.728;-4.414;2023-08-12T06:22:04;28.70;99.90
47618;DHT22;33336;36.728;-4.414;2023-08-12T06:27:08;28.30;99.90
47618;DHT22;33336;36.728;-4.414;2023-08-12T06:32:11;28.70;99.90
47618;DHT22;33336;36.728;-4.414;2023-08-12T06:37:15;28.30;99.90
47618;DHT22;33336;36.728;-4.414;2023-08-12T06:42:21;28.30;99.90
47618;DHT22;33336;36.728;-4.414;2023-08-12T06:47:24;28.60;99.90
47618;DHT22;33336;36.728;-4.414;2023-08-12T06:52:28;28.50;99.90
47618;DHT22;33336;36.728;-4.414;2023-08-12T06:57:32;28.40;99.90
47618;DHT22;33336;36.728;-4.414;2023-08-12T07:02:35;28.80;99.90
47618;DHT22;33336;36.728;-4.414;2023-08-12T07:07:38;28.30;99.90
47618;DHT22;33336;36.728;-4.414;2023-08-12T07:12:43;28.90;99.90
47618;DHT22;33336;36.728;-4.414;2023-08-12T07:17:45;29.50;99.90
47618;DHT22;33336;36.728;-4.414;2023-08-12T07:22:48;29.50;99.90
47618;DHT22;33336;36.728;-4.414;2023-08-12T07:27:53;29.50;99.90
47618;DHT22;33336;36.728;-4.414;2023-08-12T07:32:56;29.90;99.90
47618;DHT22;33336;36.728;-4.414;2023-08-12T07:37:59;30.00;99.90
47618;DHT22;33336;36.728;-4.414;2023-08-12T07:43:04;29.40;99.90
47618;DHT22;33336;36.728;-4.414;2023-08-12T07:48:07;29.80;99.90
47618;DHT22;33336;36.728;-4.414;2023-08-12T07:53:11;29.90;99.90
47618;DHT22;33336;36.728;-4.414;2023-08-12T07:58:15;30.30;99.90
47618;DHT22;33336;36.728;-4.414;2023-08-12T08:03:18;30.20;99.90
47618;DHT22;33336;36.728;-4.414;2023-08-12T08:08:21;30.50;99.90
47618;DHT22;33336;36.728;-4.414;2023-08-12T08:13:25;30.00;99.90
47618;DHT22;33336;36.728;-4.414;2023-08-12T08:18:28;29.80;99.90
47618;DHT22;33336;36.728;-4.414;2023-08-12T08:23:31;30.00;99.90
47618;DHT22;33336;36.728;-4.414;2023-08-12T08:28:35;30.00;99.90
47618;DHT22;33336;36.728;-4.414;2023-08-12T08:33:38;30.60;99.90
47618;DHT22;33336;36.728;-4.414;2023-08-12T08:38:41;30.10;99.90
47618;DHT22;33336;36.728;-4.414;2023-08-12T08:43:48;29.50;99.90
47618;DHT22;33336;36.728;-4.414;2023-08-12T08:48:51;29.20;99.90
47618;DHT22;33336;36.728;-4.414;2023-08-12T08:53:55;29.00;99.90
47618;DHT22;33336;36.728;-4.414;2023-08-12T08:59:00;29.10;99.90
47618;DHT22;33336;36.728;-4.414;2023-08-12T09:04:05;29.00;99.90
47618;DHT22;33336;36.728;-4.414;2023-08-12T09:09:12;29.20;99.90
47618;DHT22;33336;36.728;-4.414;2023-08-12T09:14:18;29.30;99.90
47618;DHT22;33336;36.728;-4.414;2023-08-12T09:19:21;29.20;99.90
47618;DHT22;33336;36.728;-4.414;2023-08-12T09:24:24;30.00;99.90
47618;DHT22;33336;36.728;-4.414;2023-08-12T09:29:31;29.80;99.90
47618;DHT22;33336;36.728;-4.414;2023-08-12T09:34:34;29.20;99.90
47618;DHT22;33336;36.728;-4.414;2023-08-12T09:39:37;29.00;99.90
47618;DHT22;33336;36.728;-4.414;2023-08-12T09:44:42;29.10;99.90
47618;DHT22;33336;36.728;-4.414;2023-08-12T09:49:46;29.20;99.90
47618;DHT22;33336;36.728;-4.414;2023-08-12T09:54:50;29.00;99.90
47618;DHT22;33336;36.728;-4.414;2023-08-12T09:59:57;29.30;99.90
47618;DHT22;33336;36.728;-4.414;2023-08-12T10:05:00;29.50;99.90
47618;DHT22;33336;36.728;-4.414;2023-08-12T10:10:06;29.20;99.90
47618;DHT22;33336;36.728;-4.414;2023-08-12T10:15:11;29.20;99.90
47618;DHT22;33336;36.728;-4.414;2023-08-12T10:20:20;29.00;99.90
47618;DHT22;33336;36.728;-4.414;2023-08-12T10:25:25;29.20;99.90
47618;DHT22;33336;36.728;-4.414;2023-08-12T10:30:36;28.80;99.90
47618;DHT22;33336;36.728;-4.414;2023-08-12T10:35:43;29.10;99.90
47618;DHT22;33336;36.728;-4.414;2023-08-12T10:40:46;29.70;99.90
47618;DHT22;33336;36.728;-4.414;2023-08-12T10:45:52;29.50;99.90
47618;DHT22;33336;36.728;-4.414;2023-08-12T10:50:58;29.50;99.90
47618;DHT22;33336;36.728;-4.414;2023-08-12T10:56:03;29.90;99.90
47618;DHT22;33336;36.728;-4.414;2023-08-12T11:01:13;29.30;99.90
47618;DHT22;33336;36.728;-4.414;2023-08-12T11:06:16;29.40;99.90
47618;DHT22;33336;36.728;-4.414;2023-08-12T11:11:21;29.20;99.90
47618;DHT22;33336;36.728;-4.414;2023-08-12T11:16:35;29.50;99.90
47618;DHT22;33336;36.728;-4.414;2023-08-12T11:21:39;30.00;99.90
47618;DHT22;33336;36.728;-4.414;2023-08-12T11:26:42;29.80;99.90
47618;DHT22;33336;36.728;-4.414;2023-08-12T11:31:48;29.90;99.90
47618;DHT22;33336;36.728;-4.414;2023-08-12T11:36:51;30.20;99.90
47618;DHT22;33336;36.728;-4.414;2023-08-12T11:41:55;30.80;99.90
47618;DHT22;33336;36.728;-4.414;2023-08-12T11:47:00;30.90;99.90
47618;DHT22;33336;36.728;-4.414;2023-08-12T11:52:03;30.40;99.90
47618;DHT22;33336;36.728;-4.414;2023-08-12T11:57:06;31.30;99.90
47618;DHT22;33336;36.728;-4.414;2023-08-12T12:02:11;31.30;99.90
47618;DHT22;33336;36.728;-4.414;2023-08-12T12:07:18;30.80;99.90
47618;DHT22;33336;36.728;-4.414;2023-08-12T12:12:24;31.00;99.90
47618;DHT22;33336;36.728;-4.414;2023-08-12T12:17:28;31.10;99.90
47618;DHT22;33336;36.728;-4.414;2023-08-12T12:22:32;31.30;99.90
47618;DHT22;33336;36.728;-4.414;2023-08-12T12:27:36;31.00;99.90
47618;DHT22;33336;36.728;-4.414;2023-08-12T12:32:42;31.10;99.90
47618;DHT22;33336;36.728;-4.414;2023-08-12T12:37:45;30.50;99.90
47618;DHT22;33336;36.728;-4.414;2023-08-12T12:42:48;31.40;99.90
47618;DHT22;33336;36.728;-4.414;2023-08-12T12:47:52;30.90;99.90
47618;DHT22;33336;36.728;-4.414;2023-08-12T12:52:56;31.30;99.90
47618;DHT22;33336;36.728;-4.414;2023-08-12T12:57:59;31.00;99.90
47618;DHT22;33336;36.728;-4.414;2023-08-12T13:03:04;31.40;99.90
47618;DHT22;33336;36.728;-4.414;2023-08-12T13:08:07;31.50;99.90
47618;DHT22;33336;36.728;-4.414;2023-08-12T13:13:10;31.40;99.90
47618;DHT22;33336;36.728;-4.414;2023-08-12T13:18:14;31.60;99.90
47618;DHT22;33336;36.728;-4.414;2023-08-12T13:23:17;31.10;99.90
47618;DHT22;33336;36.728;-4.414;2023-08-12T13:28:20;31.50;99.90
47618;DHT22;33336;36.728;-4.414;2023-08-12T13:33:24;32.10;99.90
47618;DHT22;33336;36.728;-4.414;2023-08-12T13:38:27;32.10;99.90
47618;DHT22;33336;36.728;-4.414;2023-08-12T13:43:30;31.90;99.90
47618;DHT22;33336;36.728;-4.414;2023-08-12T13:48:34;32.20;99.90
47618;DHT22;33336;36.728;-4.414;2023-08-12T13:53:37;32.40;99.90
47618;DHT22;33336;36.728;-4.414;2023-08-12T13:58:40;32.30;99.90
47618;DHT22;33336;36.728;-4.414;2023-08-12T14:03:45;32.50;99.90
47618;DHT22;33336;36.728;-4.414;2023-08-12T14:08:47;32.10;99.90
47618;DHT22;33336;36.728;-4.414;2023-08-12T14:13:50;33.10;99.90
47618;DHT22;33336;36.728;-4.414;2023-08-12T14:18:54;33.80;99.90
47618;DHT22;33336;36.728;-4.414;2023-08-12T14:23:57;33.40;99.90
47618;DHT22;33336;36.728;-4.414;2023-08-12T14:29:00;31.80;99.90
47618;DHT22;33336;36.728;-4.414;2023-08-12T14:34:35;33.40;99.90
47618;DHT22;33336;36.728;-4.414;2023-08-12T14:39:46;33.30;99.90
47618;DHT22;33336;36.728;-4.414;2023-08-12T14:44:49;34.10;99.90
47618;DHT22;33336;36.728;-4.414;2023-08-12T14:49:53;34.10;99.90
47618;DHT22;33336;36.728;-4.414;2023-08-12T14:54:56;33.70;99.90
47618;DHT22;33336;36.728;-4.414;2023-08-12T14:59:59;33.20;99.90
47618;DHT22;33336;36.728;-4.414;2023-08-12T15:05:03;33.60;99.90
47618;DHT22;33336;36.728;-4.414;2023-08-12T15:10:07;34.00;99.90
47618;DHT22;33336;36.728;-4.414;2023-08-12T15:15:10;34.40;99.90
47618;DHT22;33336;36.728;-4.414;2023-08-12T15:20:14;34.20;99.90
47618;DHT22;33336;36.728;-4.414;2023-08-12T15:25:18;34.60;99.90
47618;DHT22;33336;36.728;-4.414;2023-08-12T15:30:21;34.40;99.90
47618;DHT22;33336;36.728;-4.414;2023-08-12T15:35:26;34.60;99.90
47618;DHT22;33336;36.728;-4.414;2023-08-12T15:40:29;35.00;99.90
47618;DHT22;33336;36.728;-4.414;2023-08-12T15:45:32;34.20;99.90
47618;DHT22;33336;36.728;-4.414;2023-08-12T15:50:36;35.20;99.90
47618;DHT22;33336;36.728;-4.414;2023-08-12T15:55:40;35.50;99.90
47618;DHT22;33336;36.728;-4.414;2023-08-12T16:00:43;35.70;99.90
47618;DHT22;33336;36.728;-4.414;2023-08-12T16:05:48;34.50;99.90
47618;DHT22;33336;36.728;-4.414;2023-08-12T16:10:51;35.10;99.90
47618;DHT22;33336;36.728;-4.414;2023-08-12T16:15:54;36.00;99.90
47618;DHT22;33336;36.728;-4.414;2023-08-12T16:20:58;36.70;99.30
47618;DHT22;33336;36.728;-4.414;2023-08-12T16:26:00;35.70;99.90
47618;DHT22;33336;36.728;-4.414;2023-08-12T16:31:03;36.10;99.90
47618;DHT22;33336;36.728;-4.414;2023-08-12T16:36:07;36.10;99.60
47618;DHT22;33336;36.728;-4.414;2023-08-12T16:41:11;37.30;99.40
47618;DHT22;33336;36.728;-4.414;2023-08-12T16:46:17;38.40;97.80
47618;DHT22;33336;36.728;-4.414;2023-08-12T16:51:22;39.30;96.80
47618;DHT22;33336;36.728;-4.414;2023-08-12T16:56:25;38.50;96.60
47618;DHT22;33336;36.728;-4.414;2023-08-12T17:01:28;38.90;96.70
47618;DHT22;33336;36.728;-4.414;2023-08-12T17:06:33;39.30;96.30
47618;DHT22;33336;36.728;-4.414;2023-08-12T17:11:37;38.00;96.40
47618;DHT22;33336;36.728;-4.414;2023-08-12T17:16:39;39.10;96.70
47618;DHT22;33336;36.728;-4.414;2023-08-12T17:21:44;38.60;96.60
47618;DHT22;33336;36.728;-4.414;2023-08-12T17:26:46;40.10;94.90
47618;DHT22;33336;36.728;-4.414;2023-08-12T17:31:49;40.90;94.70
47618;DHT22;33336;36.728;-4.414;2023-08-12T17:36:53;39.40;95.20
47618;DHT22;33336;36.728;-4.414;2023-08-12T17:41:56;39.90;94.90
47618;DHT22;33336;36.728;-4.414;2023-08-12T17:46:59;39.90;95.50
47618;DHT22;33336;36.728;-4.414;2023-08-12T17:52:04;41.10;94.30
47618;DHT22;33336;36.728;-4.414;2023-08-12T17:57:07;40.20;94.10
47618;DHT22;33336;36.728;-4.414;2023-08-12T18:02:10;38.70;95.10
47618;DHT22;33336;36.728;-4.414;2023-08-12T18:07:14;37.30;96.50
47618;DHT22;33336;36.728;-4.414;2023-08-12T18:12:17;38.60;95.60
47618;DHT22;33336;36.728;-4.414;2023-08-12T18:17:19;39.30;95.40
47618;DHT22;33336;36.728;-4.414;2023-08-12T18:22:24;38.90;95.20
47618;DHT22;33336;36.728;-4.414;2023-08-12T18:27:27;37.90;96.10
47618;DHT22;33336;36.728;-4.414;2023-08-12T18:32:31;37.40;97.00
47618;DHT22;33336;36.728;-4.414;2023-08-12T18:37:35;37.70;96.20
47618;DHT22;33336;36.728;-4.414;2023-08-12T18:42:41;36.70;97.30
47618;DHT22;33336;36.728;-4.414;2023-08-12T18:47:47;35.70;98.70
47618;DHT22;33336;36.728;-4.414;2023-08-12T18:52:52;34.20;99.90
47618;DHT22;33336;36.728;-4.414;2023-08-12T18:57:55;34.60;99.90
47618;DHT22;33336;36.728;-4.414;2023-08-12T19:02:58;34.80;99.90
47618;DHT22;33336;36.728;-4.414;2023-08-12T19:08:02;34.70;99.90
47618;DHT22;33336;36.728;-4.414;2023-08-12T19:13:06;33.60;99.90
47618;DHT22;33336;36.728;-4.414;2023-08-12T19:18:08;33.80;99.90
47618;DHT22;33336;36.728;-4.414;2023-08-12T19:23:13;32.80;99.90
47618;DHT22;33336;36.728;-4.414;2023-08-12T19:28:16;33.10;99.90
47618;DHT22;33336;36.728;-4.414;2023-08-12T19:33:20;32.80;99.90
47618;DHT22;33336;36.728;-4.414;2023-08-12T19:38:24;32.10;99.90
47618;DHT22;33336;36.728;-4.414;2023-08-12T19:43:28;32.30;99.90
47618;DHT22;33336;36.728;-4.414;2023-08-12T19:48:31;32.10;99.90
47618;DHT22;33336;36.728;-4.414;2023-08-12T19:53:35;31.80;99.90
47618;DHT22;33336;36.728;-4.414;2023-08-12T19:58:38;31.00;99.90
47618;DHT22;33336;36.728;-4.414;2023-08-12T20:03:42;31.30;99.90
47618;DHT22;33336;36.728;-4.414;2023-08-12T20:08:49;31.40;99.90
47618;DHT22;33336;36.728;-4.414;2023-08-12T20:13:52;32.00;99.90
47618;DHT22;33336;36.728;-4.414;2023-08-12T20:18:55;32.00;99.90
47618;DHT22;33336;36.728;-4.414;2023-08-12T20:23:59;31.30;99.90
47618;DHT22;33336;36.728;-4.414;2023-08-12T20:29:03;30.70;99.90
47618;DHT22;33336;36.728;-4.414;2023-08-12T20:34:05;30.90;99.90
47618;DHT22;33336;36.728;-4.414;2023-08-12T20:39:10;29.90;99.90
47618;DHT22;33336;36.728;-4.414;2023-08-12T20:44:12;30.00;99.90
47618;DHT22;33336;36.728;-4.414;2023-08-12T20:49:15;30.50;99.90
47618;DHT22;33336;36.728;-4.414;2023-08-12T20:54:19;31.00;99.90
47618;DHT22;33336;36.728;-4.414;2023-08-12T20:59:23;30.90;99.90
47618;DHT22;33336;36.728;-4.414;2023-08-12T21:04:26;30.90;99.90
47618;DHT22;33336;36.728;-4.414;2023-08-12T21:09:30;30.90;99.90
47618;DHT22;33336;36.728;-4.414;2023-08-12T21:14:34;30.90;99.90
47618;DHT22;33336;36.728;-4.414;2023-08-12T21:19:37;30.70;99.90
47618;DHT22;33336;36.728;-4.414;2023-08-12T21:24:41;31.00;99.90
47618;DHT22;33336;36.728;-4.414;2023-08-12T21:29:44;30.90;99.90
47618;DHT22;33336;36.728;-4.414;2023-08-12T21:34:47;30.70;99.90
47618;DHT22;33336;36.728;-4.414;2023-08-12T21:39:51;30.60;99.90
47618;DHT22;33336;36.728;-4.414;2023-08-12T21:44:55;30.70;99.90
47618;DHT22;33336;36.728;-4.414;2023-08-12T21:49:58;30.50;99.90
47618;DHT22;33336;36.728;-4.414;2023-08-12T21:55:03;30.50;99.90
47618;DHT22;33336;36.728;-4.414;2023-08-12T22:00:07;30.20;99.90
47618;DHT22;33336;36.728;-4.414;2023-08-12T22:05:13;29.30;99.90
47618;DHT22;33336;36.728;-4.414;2023-08-12T22:10:17;29.00;99.90
47618;DHT22;33336;36.728;-4.414;2023-08-12T22:15:21;29.00;99.90
47618;DHT22;33336;36.728;-4.414;2023-08-12T22:20:24;29.00;99.90
47618;DHT22;33336;36.728;-4.414;2023-08-12T22:25:31;29.10;99.90
47618;DHT22;33336;36.728;-4.414;2023-08-12T22:30:33;29.20;99.90
47618;DHT22;33336;36.728;-4.414;2023-08-12T22:35:37;29.70;99.90
47618;DHT22;33336;36.728;-4.414;2023-08-12T22:40:41;29.40;99.90
47618;DHT22;33336;36.728;-4.414;2023-08-12T22:45:44;29.30;99.90
47618;DHT22;33336;36.728;-4.414;2023-08-12T22:50:47;29.60;99.90
47618;DHT22;33336;36.728;-4.414;2023-08-12T22:55:51;29.70;99.90
47618;DHT22;33336;36.728;-4.414;2023-08-12T23:00:54;29.90;99.90
47618;DHT22;33336;36.728;-4.414;2023-08-12T23:06:00;29.70;99.90
47618;DHT22;33336;36.728;-4.414;2023-08-12T23:11:05;29.70;99.90
47618;DHT22;33336;36.728;-4.414;2023-08-12T23:16:09;29.80;99.90
47618;DHT22;33336;36.728;-4.414;2023-08-12T23:21:12;29.70;99.90
47618;DHT22;33336;36.728;-4.414;2023-08-12T23:26:16;29.80;99.90
47618;DHT22;33336;36.728;-4.414;2023-08-12T23:31:19;29.80;99.90
47618;DHT22;33336;36.728;-4.414;2023-08-12T23:36:23;29.60;99.90
47618;DHT22;33336;36.728;-4.414;2023-08-12T23:41:27;29.30;99.90
47618;DHT22;33336;36.728;-4.414;2023-08-12T23:46:30;29.60;99.90
47618;DHT22;33336;36.728;-4.414;2023-08-12T23:51:33;29.60;99.90
47618;DHT22;33336;36.728;-4.414;2023-08-12T23:56:37;29.60;99.90
